Time;durP1;ratioP1;P1;durP2;ratioP2;P2;SDS_P1;SDS_P2;PMS_P1;PMS_P2;Temp;Humidity;BMP_temperature;BMP_pressure;BME280_temperature;BME280_humidity;BME280_pressure;Samples;Min_cycle;Max_cycle;Signal;HPM_P1;HPM_P2
2023/10/08 00:01:55;;;;;;;11.32;3.83;;;19.40;86.00;;;;;;5055193;28;19916;-78
2023/10/08 00:04:21;;;;;;;7.68;3.30;;;19.30;86.50;;;;;;5072048;28;20024;-78
2023/10/08 00:06:47;;;;;;;10.38;4.13;;;19.30;86.60;;;;;;5038980;28;20092;-78
2023/10/08 00:09:14;;;;;;;7.68;3.67;;;19.30;86.80;;;;;;5071916;28;20029;-78
2023/10/08 00:11:40;;;;;;;7.15;3.80;;;19.30;86.90;;;;;;5055172;28;20048;-78
2023/10/08 00:14:10;;;;;;;11.82;3.90;;;19.20;87.00;;;;;;5071969;28;20025;-77
2023/10/08 00:16:39;;;;;;;8.65;4.00;;;19.20;87.00;;;;;;5072004;28;20387;-78
2023/10/08 00:19:13;;;;;;;7.38;3.72;;;19.20;87.20;;;;;;5072772;28;20021;-78
2023/10/08 00:21:39;;;;;;;9.40;4.25;;;19.20;87.20;;;;;;5072736;28;20029;-78
2023/10/08 00:24:09;;;;;;;7.03;3.63;;;19.20;87.30;;;;;;5055014;28;20108;-78
2023/10/08 00:26:35;;;;;;;8.57;4.22;;;19.30;87.30;;;;;;5071867;28;20029;-78
2023/10/08 00:29:21;;;;;;;11.38;3.65;;;19.30;87.30;;;;;;5072673;28;20048;-78
2023/10/08 00:31:49;;;;;;;8.93;3.97;;;19.20;87.20;;;;;;5072732;28;20104;-78
2023/10/08 00:34:17;;;;;;;9.27;3.80;;;19.20;87.30;;;;;;5072527;28;20025;-78
2023/10/08 00:36:45;;;;;;;6.88;3.72;;;19.20;87.60;;;;;;5055009;28;20021;-78
2023/10/08 00:39:16;;;;;;;8.48;3.40;;;19.10;87.80;;;;;;5072462;28;20049;-77
2023/10/08 00:41:45;;;;;;;9.65;3.80;;;19.10;87.40;;;;;;5054872;28;20096;-78
2023/10/08 00:44:22;;;;;;;12.20;3.67;;;19.10;88.10;;;;;;5054880;28;20029;-78
2023/10/08 00:46:49;;;;;;;11.13;4.07;;;19.10;88.30;;;;;;5054877;28;20047;-78
2023/10/08 00:49:26;;;;;;;8.77;3.72;;;19.10;88.30;;;;;;5055000;28;20377;-78
2023/10/08 00:52:53;;;;;;;6.80;3.60;;;19.10;88.30;;;;;;5058526;28;20025;-78
2023/10/08 00:57:29;;;;;;;9.45;3.85;;;19.10;88.30;;;;;;5035204;28;20059;-78
2023/10/08 00:59:58;;;;;;;11.38;3.78;;;19.00;88.30;;;;;;5058326;28;20088;-77
2023/10/08 01:02:45;;;;;;;7.60;3.80;;;19.00;88.50;;;;;;5058193;28;20085;-77
2023/10/08 01:05:17;;;;;;;10.38;4.30;;;18.90;88.60;;;;;;5058245;28;20052;-77
2023/10/08 01:07:45;;;;;;;11.15;3.70;;;19.00;88.70;;;;;;5058166;28;20021;-78
2023/10/08 01:10:13;;;;;;;8.93;3.75;;;18.90;88.80;;;;;;5074870;28;20021;-78
2023/10/08 01:12:55;;;;;;;11.82;3.75;;;18.80;88.80;;;;;;5075061;28;20025;-77
2023/10/08 01:15:28;;;;;;;8.73;3.80;;;18.80;88.90;;;;;;5075005;28;20025;-78
2023/10/08 01:18:00;;;;;;;9.80;3.50;;;18.80;89.00;;;;;;5058015;28;20029;-78
2023/10/08 01:20:37;;;;;;;10.40;3.90;;;18.70;89.10;;;;;;5058087;28;20051;-78
2023/10/08 01:23:10;;;;;;;7.97;3.35;;;18.60;89.40;;;;;;5057910;28;20031;-78
2023/10/08 01:25:42;;;;;;;8.70;4.00;;;18.60;89.70;;;;;;5057923;28;20051;-78
2023/10/08 01:28:18;;;;;;;11.20;3.97;;;18.60;89.80;;;;;;5075421;28;20027;-78
2023/10/08 01:30:47;;;;;;;9.57;3.78;;;18.60;89.70;;;;;;5075385;28;20040;-78
2023/10/08 01:33:15;;;;;;;7.40;3.72;;;18.50;89.80;;;;;;5075438;28;20033;-78
2023/10/08 01:35:41;;;;;;;11.18;4.10;;;18.50;89.70;;;;;;5075231;28;20017;-78
2023/10/08 01:38:08;;;;;;;10.40;4.50;;;18.50;89.70;;;;;;5074249;28;20032;-78
2023/10/08 01:40:34;;;;;;;8.45;3.92;;;18.50;89.80;;;;;;5057369;28;20073;-78
2023/10/08 01:43:04;;;;;;;9.48;3.70;;;18.40;89.70;;;;;;5074266;28;20021;-79
2023/10/08 01:45:30;;;;;;;9.60;3.63;;;18.30;89.80;;;;;;5041718;28;20384;-78
2023/10/08 01:47:57;;;;;;;11.52;4.25;;;18.30;89.70;;;;;;5057422;28;20017;-78
2023/10/08 01:50:24;;;;;;;17.00;3.78;;;18.30;89.60;;;;;;5040837;28;20032;-78
2023/10/08 01:52:51;;;;;;;9.38;3.85;;;18.40;89.60;;;;;;5075000;28;20013;-78
2023/10/08 01:55:19;;;;;;;10.50;4.03;;;18.30;89.60;;;;;;5057207;28;20029;-78
2023/10/08 01:57:51;;;;;;;7.20;4.00;;;18.30;89.60;;;;;;5057313;28;20032;-78
2023/10/08 02:00:19;;;;;;;;;;;18.30;89.50;;;;;;5057656;28;20021;-78
2023/10/08 02:02:50;;;;;;;9.05;3.58;;;18.20;89.80;;;;;;5039978;28;19912;-78
2023/10/08 02:05:18;;;;;;;9.38;3.45;;;18.20;90.00;;;;;;5057107;28;20047;-78
2023/10/08 02:07:44;;;;;;;10.25;4.32;;;18.20;90.00;;;;;;5057068;28;20021;-78
2023/10/08 02:10:11;;;;;;;10.57;4.32;;;18.10;90.10;;;;;;5057075;28;20092;-78
2023/10/08 02:12:41;;;;;;;9.60;3.55;;;18.00;90.10;;;;;;5056934;28;20029;-78
2023/10/08 02:15:07;;;;;;;8.82;3.95;;;18.10;90.20;;;;;;5057019;28;20025;-78
2023/10/08 02:17:34;;;;;;;10.40;3.38;;;18.00;90.20;;;;;;5073567;28;20029;-78
2023/10/08 02:20:04;;;;;;;8.75;3.95;;;18.00;90.20;;;;;;5056780;28;20491;-78
2023/10/08 02:22:30;;;;;;;10.77;4.47;;;18.00;90.20;;;;;;5073513;28;20025;-78
2023/10/08 02:25:01;;;;;;;7.57;3.70;;;18.00;90.60;;;;;;5056744;28;20490;-78
2023/10/08 02:27:29;;;;;;;9.43;4.32;;;18.00;90.20;;;;;;5056744;28;20028;-78
2023/10/08 02:29:55;;;;;;;12.05;4.22;;;18.00;90.20;;;;;;5040056;28;20033;-78
2023/10/08 02:32:22;;;;;;;10.63;3.80;;;18.00;90.20;;;;;;5074164;28;20029;-78
2023/10/08 02:34:49;;;;;;;11.18;3.95;;;18.00;90.20;;;;;;5073260;28;20047;-78
2023/10/08 02:37:16;;;;;;;9.75;3.92;;;18.00;90.20;;;;;;5040278;28;20037;-78
2023/10/08 02:39:42;;;;;;;9.77;4.10;;;18.00;90.20;;;;;;5056303;28;20112;-78
2023/10/08 02:42:10;;;;;;;8.73;4.35;;;18.00;90.30;;;;;;5073980;28;20021;-78
2023/10/08 02:44:41;;;;;;;12.45;4.60;;;18.00;90.30;;;;;;5056796;28;20027;-78
2023/10/08 02:47:20;;;;;;;13.90;4.40;;;18.00;90.30;;;;;;5056350;28;20021;-78
2023/10/08 02:49:51;;;;;;;8.75;3.85;;;18.00;90.30;;;;;;5058037;28;20021;-78
2023/10/08 02:52:18;;;;;;;10.65;4.40;;;18.00;90.30;;;;;;5072981;28;20033;-78
2023/10/08 02:54:43;;;;;;;10.90;4.43;;;18.10;90.30;;;;;;5056146;28;20035;-78
2023/10/08 02:57:14;;;;;;;11.07;3.90;;;18.20;90.30;;;;;;5056256;28;20029;-77
2023/10/08 02:59:44;;;;;;;18.10;4.97;;;18.10;90.20;;;;;;5056108;28;20037;-78
2023/10/08 03:02:21;;;;;;;12.48;4.30;;;18.10;90.30;;;;;;5072879;28;20091;-78
2023/10/08 03:04:50;;;;;;;9.38;4.05;;;18.10;90.20;;;;;;5072904;28;20088;-78
2023/10/08 03:07:32;;;;;;;9.70;4.28;;;18.20;90.20;;;;;;5056013;28;20045;-78
2023/10/08 03:10:05;;;;;;;10.95;4.15;;;18.10;90.30;;;;;;5055957;28;20028;-78
2023/10/08 03:12:34;;;;;;;10.55;3.58;;;18.00;90.40;;;;;;5073301;28;20029;-78
2023/10/08 03:15:14;;;;;;;13.27;4.45;;;18.10;90.50;;;;;;5072694;28;20029;-78
2023/10/08 03:17:48;;;;;;;7.72;3.95;;;18.00;90.50;;;;;;5055771;28;20056;-78
2023/10/08 03:23:33;;;;;;;11.20;4.53;;;18.00;90.70;;;;;;5063877;28;20045;-78
2023/10/08 03:26:10;;;;;;;9.45;4.40;;;17.90;90.70;;;;;;5055784;28;20021;-77
2023/10/08 03:28:37;;;;;;;11.35;4.60;;;17.90;90.80;;;;;;5055670;28;20032;-78
2023/10/08 03:31:04;;;;;;;11.27;4.22;;;17.90;90.90;;;;;;5073275;28;20408;-78
2023/10/08 03:33:34;;;;;;;13.13;3.95;;;17.90;90.80;;;;;;5055603;28;20025;-78
2023/10/08 03:36:09;;;;;;;8.95;4.30;;;17.80;90.80;;;;;;5055510;28;20025;-77
2023/10/08 03:38:45;;;;;;;12.52;4.57;;;17.70;91.00;;;;;;5072127;28;20033;-78
2023/10/08 03:41:16;;;;;;;12.00;5.18;;;17.70;91.00;;;;;;5055430;28;20025;-78
2023/10/08 03:44:20;;;;;;;12.07;4.95;;;17.70;91.00;;;;;;5055580;28;20142;-78
2023/10/08 03:46:40;;;;;;;12.70;4.70;;;17.70;91.00;;;;;;5056263;28;20030;-78
2023/10/08 03:49:14;;;;;;;8.48;4.72;;;17.70;91.00;;;;;;5055422;28;20096;-78
2023/10/08 03:51:39;;;;;;;12.18;4.45;;;17.70;91.00;;;;;;5055397;28;20029;-78
2023/10/08 03:56:36;;;;;;;10.02;4.85;;;17.80;90.80;;;;;;5072154;28;20037;-78
2023/10/08 03:59:20;;;;;;;12.32;4.90;;;17.70;90.80;;;;;;5055522;28;20041;-77
2023/10/08 04:01:48;;;;;;;10.95;4.88;;;17.70;90.90;;;;;;5072249;28;20032;-78
2023/10/08 04:04:14;;;;;;;12.90;5.47;;;17.60;90.90;;;;;;5072024;28;20028;-78
2023/10/08 04:06:48;;;;;;;12.18;4.78;;;17.60;90.90;;;;;;5038853;28;20021;-78
2023/10/08 04:09:23;;;;;;;9.80;5.10;;;17.60;91.40;;;;;;5056409;28;20021;-78
2023/10/08 04:14:17;;;;;;;11.07;4.55;;;17.60;91.00;;;;;;5071985;28;20064;-78
2023/10/08 04:16:43;;;;;;;12.63;5.05;;;17.60;91.00;;;;;;5072933;28;20051;-78
2023/10/08 04:19:10;;;;;;;13.10;4.90;;;17.50;91.10;;;;;;5055141;28;20080;-78
2023/10/08 04:21:36;;;;;;;11.23;5.03;;;17.50;91.10;;;;;;5071783;28;20029;-78
2023/10/08 04:24:06;;;;;;;12.52;5.18;;;17.60;91.10;;;;;;5071871;28;20031;-78
2023/10/08 04:26:32;;;;;;;10.30;4.45;;;17.60;91.00;;;;;;5058870;28;20052;-77
2023/10/08 04:29:02;;;;;;;12.85;4.88;;;17.60;91.00;;;;;;5075666;28;20021;-78
2023/10/08 04:31:46;;;;;;;10.68;4.90;;;17.60;90.90;;;;;;5059009;28;20031;-78
2023/10/08 04:34:15;;;;;;;11.70;4.65;;;17.60;90.90;;;;;;5058764;28;20093;-77
2023/10/08 04:36:54;;;;;;;12.65;5.38;;;17.60;90.90;;;;;;5058802;28;20048;-78
2023/10/08 04:39:33;;;;;;;12.43;5.38;;;17.60;90.90;;;;;;5058566;28;20060;-78
2023/10/08 04:42:13;;;;;;;12.57;5.18;;;17.60;91.00;;;;;;5058691;28;20033;-78
2023/10/08 04:44:40;;;;;;;15.30;5.07;;;17.60;91.10;;;;;;5058718;28;20025;-78
2023/10/08 04:47:12;;;;;;;11.90;5.38;;;17.60;91.00;;;;;;5058546;28;20020;-78
2023/10/08 04:49:45;;;;;;;12.93;5.50;;;17.70;91.00;;;;;;5076444;28;20048;-78
2023/10/08 04:52:14;;;;;;;11.63;5.28;;;17.80;91.00;;;;;;5058666;28;20049;-78
2023/10/08 04:54:41;;;;;;;12.95;5.47;;;17.80;91.00;;;;;;5076249;28;20089;-78
2023/10/08 04:57:15;;;;;;;14.50;5.72;;;17.80;90.90;;;;;;5058412;28;20068;-78
2023/10/08 04:59:46;;;;;;;11.48;5.30;;;17.80;91.00;;;;;;5058475;28;20029;-77
2023/10/08 05:02:13;;;;;;;13.85;6.15;;;17.80;90.90;;;;;;5058220;28;20086;-78
2023/10/08 05:10:44;;;;;;;11.30;4.97;;;17.80;90.80;;;;;;5076085;28;20078;-78
2023/10/08 05:15:47;;;;;;;9.80;4.85;;;17.70;90.90;;;;;;5059541;28;20036;-78
2023/10/08 05:20:59;;;;;;;13.38;5.47;;;17.60;91.00;;;;;;5074796;28;20097;-78
2023/10/08 05:26:09;;;;;;;10.55;4.85;;;17.40;91.40;;;;;;5075494;28;20021;-78
2023/10/08 05:34:16;;;;;;;18.08;5.57;;;17.30;91.70;;;;;;5074631;28;20043;-77
2023/10/08 05:39:40;;;;;;;14.40;5.10;;;17.40;91.80;;;;;;5075266;28;20080;-77
2023/10/08 05:42:13;;;;;;;12.15;5.38;;;17.40;91.70;;;;;;5057555;28;20028;-78
2023/10/08 05:44:45;;;;;;;9.05;4.90;;;17.40;91.80;;;;;;5075274;28;20047;-78
2023/10/08 05:55:33;;;;;;;14.43;6.63;;;17.50;91.60;;;;;;5058805;28;20075;-78
2023/10/08 06:03:35;;;;;;;11.82;5.55;;;17.30;91.90;;;;;;5075075;28;20039;-78
2023/10/08 06:09:21;;;;;;;11.85;5.10;;;17.20;92.10;;;;;;5036398;28;20024;-78
2023/10/08 06:12:09;;;;;;;15.55;5.40;;;17.20;92.30;;;;;;5057129;28;20036;-78
2023/10/08 06:15:37;;;;;;;15.45;5.95;;;17.20;92.20;;;;;;5056891;28;20063;-78
2023/10/08 06:17:33;;;;;;;11.40;5.20;;;17.20;92.20;;;;;;5059714;28;20037;-78
2023/10/08 06:20:01;;;;;;;11.30;5.25;;;17.20;92.30;;;;;;5056871;28;20032;-78
2023/10/08 06:22:27;;;;;;;15.13;5.60;;;17.30;92.30;;;;;;5056655;28;20024;-77
2023/10/08 06:25:15;;;;;;;11.68;5.38;;;17.30;92.20;;;;;;5040336;28;20025;-78
2023/10/08 06:27:39;;;;;;;10.45;5.45;;;17.40;92.00;;;;;;5073418;28;20029;-78
2023/10/08 06:30:06;;;;;;;12.60;5.25;;;17.40;92.10;;;;;;5056739;28;20021;-78
2023/10/08 06:32:31;;;;;;;10.23;5.68;;;17.40;92.10;;;;;;5074262;28;20044;-78
2023/10/08 06:34:57;;;;;;;10.90;5.60;;;17.40;92.10;;;;;;5056597;28;20029;-78
2023/10/08 06:37:23;;;;;;;13.73;6.05;;;17.50;92.10;;;;;;5073256;28;20033;-78
2023/10/08 06:39:48;;;;;;;13.95;6.13;;;17.50;92.00;;;;;;5039675;28;20056;-78
2023/10/08 06:42:15;;;;;;;12.55;6.03;;;17.50;92.00;;;;;;5056434;28;20037;-78
2023/10/08 06:44:46;;;;;;;14.18;6.40;;;17.50;91.90;;;;;;5073111;28;20013;-78
2023/10/08 06:47:15;;;;;;;13.40;6.10;;;17.50;91.90;;;;;;5039913;28;20104;-78
2023/10/08 06:49:43;;;;;;;11.48;6.35;;;17.50;92.00;;;;;;5073948;28;20025;-78
2023/10/08 06:52:12;;;;;;;9.73;5.85;;;17.50;92.10;;;;;;5073878;28;20021;-78
2023/10/08 06:54:37;;;;;;;14.38;6.63;;;17.50;92.10;;;;;;5073900;28;20024;-77
2023/10/08 06:57:03;;;;;;;16.58;7.45;;;17.60;92.20;;;;;;5039595;28;20100;-78
2023/10/08 06:59:31;;;;;;;13.13;6.10;;;17.60;92.20;;;;;;5056389;28;20109;-78
2023/10/08 07:01:58;;;;;;;12.73;6.60;;;17.60;92.20;;;;;;5056446;28;20032;-78
2023/10/08 07:04:24;;;;;;;14.75;6.07;;;17.60;92.30;;;;;;5072727;28;20028;-78
2023/10/08 07:06:50;;;;;;;14.27;6.10;;;17.70;92.30;;;;;;5055971;28;20017;-78
2023/10/08 07:11:55;;;;;;;12.93;6.38;;;17.60;92.40;;;;;;5072804;28;20033;-78
2023/10/08 07:14:28;;;;;;;15.77;6.32;;;17.60;92.40;;;;;;5055916;28;20025;-78
2023/10/08 07:16:59;;;;;;;16.23;7.47;;;17.70;92.40;;;;;;5055927;28;20029;-78
2023/10/08 07:19:39;;;;;;;13.75;6.35;;;17.70;92.50;;;;;;5055872;28;20029;-78
2023/10/08 07:22:18;;;;;;;18.98;7.05;;;17.70;92.50;;;;;;5073369;28;20032;-77
2023/10/08 07:24:50;;;;;;;13.45;5.70;;;17.70;92.70;;;;;;5073382;28;20028;-78
2023/10/08 07:27:21;;;;;;;;;;;17.70;92.70;;;;;;5072855;28;20044;-78
2023/10/08 07:29:47;;;;;;;14.63;5.65;;;17.60;93.20;;;;;;5055673;28;19971;-78
2023/10/08 07:32:18;;;;;;;18.92;6.15;;;17.50;93.20;;;;;;5072419;28;20029;-78
2023/10/08 07:34:44;;;;;;;15.57;5.80;;;17.50;93.30;;;;;;5055551;28;20037;-78
2023/10/08 07:37:11;;;;;;;22.80;6.32;;;17.50;93.50;;;;;;5055480;28;20021;-78
2023/10/08 07:39:46;;;;;;;18.10;5.40;;;17.50;93.50;;;;;;5071985;28;20051;-78
2023/10/08 07:42:12;;;;;;;18.27;5.93;;;17.50;93.60;;;;;;5055402;28;20021;-78
2023/10/08 07:44:38;;;;;;;15.35;5.97;;;17.40;93.80;;;;;;5073121;28;20033;-78
2023/10/08 07:47:09;;;;;;;18.55;5.88;;;17.40;93.80;;;;;;5055421;28;20029;-78
2023/10/08 07:49:35;;;;;;;20.02;5.85;;;17.50;93.70;;;;;;5072104;28;20021;-78
2023/10/08 07:52:04;;;;;;;15.43;4.93;;;17.50;93.70;;;;;;5072292;28;20060;-78
2023/10/08 07:54:34;;;;;;;18.55;5.78;;;17.50;93.70;;;;;;5055414;28;20025;-78
2023/10/08 07:57:10;;;;;;;20.55;5.90;;;17.50;93.70;;;;;;5072227;28;20024;-78
2023/10/08 07:59:47;;;;;;;15.02;4.80;;;17.50;93.80;;;;;;5056226;28;20035;-78
2023/10/08 08:02:14;;;;;;;16.33;4.63;;;17.50;93.90;;;;;;5077181;28;20036;-78
2023/10/08 08:04:43;;;;;;;14.07;4.88;;;17.50;93.90;;;;;;5077091;28;20017;-78
2023/10/08 08:07:15;;;;;;;15.00;4.38;;;17.60;94.20;;;;;;5076995;28;20036;-78
2023/10/08 08:09:50;;;;;;;16.35;4.80;;;17.60;94.20;;;;;;5077013;28;20017;-78
2023/10/08 08:12:17;;;;;;;18.08;5.13;;;17.50;93.80;;;;;;5043561;28;20055;-78
2023/10/08 08:14:43;;;;;;;19.23;4.57;;;17.50;93.90;;;;;;5042680;28;20040;-78
2023/10/08 08:17:14;;;;;;;19.77;5.82;;;17.50;94.00;;;;;;5042686;28;20017;-78
2023/10/08 08:19:41;;;;;;;13.00;4.55;;;17.50;94.00;;;;;;5059195;28;20029;-78
2023/10/08 08:22:07;;;;;;;19.33;4.60;;;17.50;94.10;;;;;;5075763;28;20423;-78
2023/10/08 08:24:36;;;;;;;16.10;4.80;;;17.60;94.20;;;;;;5059010;28;20055;-78
2023/10/08 08:27:11;;;;;;;16.67;5.22;;;17.60;94.20;;;;;;5059092;28;20029;-78
2023/10/08 08:29:45;;;;;;;15.57;5.45;;;17.60;94.10;;;;;;5059015;28;20048;-78
2023/10/08 08:32:21;;;;;;;11.13;4.60;;;17.50;94.00;;;;;;5075764;28;20052;-78
2023/10/08 08:34:50;;;;;;;13.13;4.15;;;17.50;94.10;;;;;;5075618;28;20043;-78
2023/10/08 08:37:16;;;;;;;13.23;4.40;;;17.50;94.10;;;;;;5075640;28;20029;-78
2023/10/08 08:39:42;;;;;;;9.70;3.97;;;17.50;94.10;;;;;;5058495;28;20068;-78
2023/10/08 08:42:08;;;;;;;12.10;4.00;;;17.50;94.10;;;;;;5058638;28;20029;-78
2023/10/08 08:44:47;;;;;;;12.77;4.85;;;17.50;94.10;;;;;;5058644;28;20071;-77
2023/10/08 08:47:24;;;;;;;11.43;4.05;;;17.50;94.10;;;;;;5058562;28;20024;-78
2023/10/08 08:49:53;;;;;;;11.35;4.38;;;17.40;94.20;;;;;;5076263;28;20021;-78
2023/10/08 08:52:19;;;;;;;7.65;3.40;;;17.40;94.30;;;;;;5075307;28;20055;-78
2023/10/08 08:54:45;;;;;;;11.25;4.00;;;17.40;94.30;;;;;;5075383;28;20033;-78
2023/10/08 08:57:14;;;;;;;8.95;3.80;;;17.40;94.40;;;;;;5075160;28;20029;-78
2023/10/08 08:59:55;;;;;;;15.23;4.63;;;17.40;94.40;;;;;;5075106;28;20021;-78
2023/10/08 09:02:20;;;;;;;11.32;3.78;;;17.50;94.40;;;;;;5074957;28;20029;-78
2023/10/08 09:04:49;;;;;;;9.35;3.78;;;17.40;94.30;;;;;;5058440;28;20021;-78
2023/10/08 09:07:15;;;;;;;7.47;3.40;;;17.40;94.30;;;;;;5058153;28;20032;-78
2023/10/08 09:09:41;;;;;;;9.20;2.88;;;17.50;94.30;;;;;;5041822;28;20021;-78
2023/10/08 09:12:10;;;;;;;6.97;2.60;;;17.50;94.10;;;;;;5041241;28;20049;-78
2023/10/08 09:14:36;;;;;;;7.05;2.40;;;17.50;94.00;;;;;;5058092;28;20021;-78
2023/10/08 09:17:05;;;;;;;5.85;2.08;;;17.50;94.00;;;;;;5058096;28;20059;-78
2023/10/08 09:19:36;;;;;;;6.60;1.95;;;17.50;94.30;;;;;;5075761;28;20048;-78
2023/10/08 09:22:06;;;;;;;5.38;2.10;;;17.40;93.80;;;;;;5075611;28;20025;-78
2023/10/08 09:24:33;;;;;;;6.88;2.33;;;17.50;93.60;;;;;;5057940;28;20031;-78
2023/10/08 09:27:01;;;;;;;6.45;2.08;;;17.40;93.70;;;;;;5075557;28;20024;-78
2023/10/08 09:29:27;;;;;;;7.53;2.85;;;17.50;93.80;;;;;;5057851;28;20021;-78
2023/10/08 09:31:56;;;;;;;7.57;3.05;;;17.50;93.80;;;;;;5057650;28;20053;-78
2023/10/08 09:34:27;;;;;;;10.20;2.85;;;17.50;93.80;;;;;;5074448;28;20083;-78
2023/10/08 09:36:55;;;;;;;9.35;3.00;;;17.40;93.60;;;;;;5075435;28;20080;-78
2023/10/08 09:39:26;;;;;;;6.30;2.40;;;17.40;93.70;;;;;;5075088;28;20071;-78
2023/10/08 09:41:54;;;;;;;5.00;1.77;;;17.30;93.70;;;;;;5057704;28;20036;-78
2023/10/08 09:44:24;;;;;;;5.07;1.88;;;17.30;93.70;;;;;;5075242;28;20081;-77
2023/10/08 09:47:04;;;;;;;10.15;2.10;;;17.30;93.70;;;;;;5057592;28;20025;-78
2023/10/08 09:49:41;;;;;;;6.70;1.70;;;17.40;93.40;;;;;;5057798;28;20021;-78
2023/10/08 09:52:10;;;;;;;2.88;1.67;;;17.40;93.30;;;;;;5075414;28;20025;-78
2023/10/08 09:54:57;;;;;;;8.73;1.80;;;17.30;93.50;;;;;;5057392;28;20029;-78
2023/10/08 09:57:26;;;;;;;6.95;1.67;;;17.40;93.20;;;;;;5057436;28;20025;-78
2023/10/08 09:59:53;;;;;;;7.22;1.90;;;17.40;93.30;;;;;;5057276;28;20021;-78
2023/10/08 10:02:21;;;;;;;5.65;2.22;;;17.40;93.40;;;;;;5073969;28;20084;-77
2023/10/08 10:04:52;;;;;;;7.45;2.10;;;17.40;93.20;;;;;;5057256;28;20024;-78
2023/10/08 10:07:19;;;;;;;5.75;2.30;;;17.40;93.20;;;;;;5073971;28;20048;-78
2023/10/08 10:09:47;;;;;;;7.65;2.30;;;17.40;93.50;;;;;;5074679;28;20090;-78
2023/10/08 10:12:19;;;;;;;6.40;1.80;;;17.50;93.40;;;;;;5074813;28;20033;-77
2023/10/08 10:14:46;;;;;;;10.35;2.35;;;17.60;93.10;;;;;;5074813;28;20025;-78
2023/10/08 10:17:20;;;;;;;6.55;1.92;;;17.60;92.90;;;;;;5074601;28;20032;-78
2023/10/08 10:19:53;;;;;;;7.72;2.05;;;17.60;93.00;;;;;;5073623;28;20060;-78
2023/10/08 10:22:31;;;;;;;7.97;1.80;;;17.60;92.90;;;;;;5055928;28;20025;-78
2023/10/08 10:24:57;;;;;;;6.47;2.05;;;17.70;93.00;;;;;;5056829;28;20009;-78
2023/10/08 10:27:23;;;;;;;6.53;2.00;;;17.70;92.80;;;;;;5056800;28;20452;-78
2023/10/08 10:29:49;;;;;;;8.43;1.98;;;17.60;92.60;;;;;;5074347;28;20025;-78
2023/10/08 10:32:15;;;;;;;6.32;1.98;;;17.70;92.70;;;;;;5073366;28;20040;-78
2023/10/08 10:34:47;;;;;;;6.45;1.90;;;17.60;92.80;;;;;;5056514;28;20029;-78
2023/10/08 10:37:23;;;;;;;4.30;1.73;;;17.70;93.00;;;;;;5074278;28;20048;-78
2023/10/08 10:39:59;;;;;;;5.07;1.75;;;17.70;93.00;;;;;;5072863;28;20116;-78
2023/10/08 10:42:26;;;;;;;4.15;1.67;;;17.80;93.00;;;;;;5074063;28;20040;-78
2023/10/08 10:44:53;;;;;;;7.22;2.33;;;17.80;93.20;;;;;;5074065;28;20017;-78
2023/10/08 10:49:53;;;;;;;6.00;1.80;;;17.90;92.50;;;;;;5074050;28;20021;-78
2023/10/08 10:52:31;;;;;;;8.30;2.05;;;17.80;92.50;;;;;;5055819;28;20032;-78
2023/10/08 10:57:54;;;;;;;5.18;1.88;;;17.90;92.70;;;;;;5073917;28;20048;-78
2023/10/08 11:03:15;;;;;;;6.97;2.50;;;17.90;92.70;;;;;;5057864;28;20040;-78
2023/10/08 11:05:47;;;;;;;6.32;2.20;;;17.90;92.80;;;;;;5073139;28;20048;-78
2023/10/08 11:08:15;;;;;;;6.97;2.47;;;17.90;92.50;;;;;;5056100;28;20088;-78
2023/10/08 11:10:49;;;;;;;9.45;2.63;;;17.90;92.80;;;;;;5055870;28;20028;-78
2023/10/08 11:13:15;;;;;;;6.78;3.10;;;17.90;93.00;;;;;;5055972;28;20078;-78
2023/10/08 11:15:43;;;;;;;7.53;3.17;;;18.10;93.20;;;;;;5072585;28;20032;-78
2023/10/08 11:18:19;;;;;;;6.78;2.90;;;18.20;92.60;;;;;;5072776;28;20092;-78
2023/10/08 11:20:46;;;;;;;6.60;2.58;;;18.30;92.70;;;;;;5055980;28;20480;-78
2023/10/08 11:23:29;;;;;;;6.55;3.22;;;18.40;92.70;;;;;;5072423;28;20025;-78
2023/10/08 11:26:02;;;;;;;7.32;3.78;;;18.50;92.50;;;;;;5073383;28;20476;-78
2023/10/08 11:28:28;;;;;;;;;;;18.50;92.30;;;;;;5072930;28;20021;-77
2023/10/08 11:30:54;;;;;;;7.00;4.43;;;18.50;91.90;;;;;;5039197;28;19930;-78
2023/10/08 11:33:20;;;;;;;8.77;5.03;;;18.40;91.80;;;;;;5055346;28;20085;-78
2023/10/08 11:35:58;;;;;;;8.57;4.70;;;18.20;91.80;;;;;;5073135;28;20024;-77
2023/10/08 11:38:24;;;;;;;8.48;5.10;;;18.20;91.90;;;;;;5072280;28;20037;-78
2023/10/08 11:40:56;;;;;;;7.55;4.60;;;18.20;92.00;;;;;;5055305;28;20048;-78
2023/10/08 11:43:24;;;;;;;9.25;4.85;;;18.10;92.20;;;;;;5039973;28;20035;-78
2023/10/08 11:45:50;;;;;;;8.52;4.97;;;18.10;92.10;;;;;;5072306;28;20036;-77
2023/10/08 11:48:28;;;;;;;7.38;4.63;;;18.20;92.40;;;;;;5055478;28;20017;-78
2023/10/08 11:50:57;;;;;;;10.07;4.57;;;18.20;92.30;;;;;;5055547;28;20037;-77
2023/10/08 11:53:24;;;;;;;10.35;5.00;;;18.20;92.30;;;;;;5055432;28;20048;-77
2023/10/08 11:55:54;;;;;;;9.23;4.30;;;18.20;92.10;;;;;;5055408;28;20017;-78
2023/10/08 11:58:21;;;;;;;7.05;3.67;;;18.20;92.20;;;;;;5055736;28;20025;-78
2023/10/08 12:00:52;;;;;;;8.80;3.92;;;18.10;92.30;;;;;;5055306;28;20047;-78
2023/10/08 12:03:18;;;;;;;7.30;3.85;;;18.10;92.40;;;;;;5055338;28;20033;-78
2023/10/08 12:05:48;;;;;;;7.10;3.72;;;18.10;92.80;;;;;;5055307;28;20028;-78
2023/10/08 12:08:16;;;;;;;7.57;2.95;;;18.10;93.00;;;;;;5055373;28;20021;-78
2023/10/08 12:10:48;;;;;;;6.53;2.72;;;18.10;92.80;;;;;;5055328;28;20043;-78
2023/10/08 12:13:18;;;;;;;6.72;2.95;;;18.10;92.80;;;;;;5039274;28;20040;-78
2023/10/08 12:15:44;;;;;;;7.13;2.83;;;18.10;92.80;;;;;;5055279;28;20025;-77
2023/10/08 12:18:25;;;;;;;5.35;2.75;;;18.10;93.00;;;;;;5055340;28;20032;-78
2023/10/08 12:20:52;;;;;;;5.32;2.45;;;18.20;93.00;;;;;;5055202;28;20017;-78
2023/10/08 12:23:28;;;;;;;5.63;2.60;;;18.20;93.00;;;;;;5055138;28;20036;-78
2023/10/08 12:25:55;;;;;;;6.13;2.92;;;18.30;93.00;;;;;;5055232;28;20032;-78
2023/10/08 12:28:23;;;;;;;6.97;3.00;;;18.30;93.00;;;;;;5055066;28;20039;-78
2023/10/08 12:30:52;;;;;;;5.72;3.05;;;18.40;93.10;;;;;;5072726;28;20021;-78
2023/10/08 12:33:19;;;;;;;6.65;3.03;;;18.50;93.20;;;;;;5072655;28;20028;-78
2023/10/08 12:35:48;;;;;;;7.78;3.00;;;18.50;92.50;;;;;;5072588;28;20021;-78
2023/10/08 12:38:14;;;;;;;6.72;3.38;;;18.50;92.60;;;;;;5038575;28;20149;-78
2023/10/08 12:40:53;;;;;;;6.13;3.30;;;18.50;92.50;;;;;;5071505;28;20045;-78
2023/10/08 12:43:26;;;;;;;7.60;3.25;;;18.40;92.30;;;;;;5055076;28;20053;-77
2023/10/08 12:45:53;;;;;;;8.70;3.92;;;18.40;92.30;;;;;;5056166;28;20032;-78
2023/10/08 12:48:20;;;;;;;8.90;3.33;;;18.30;92.30;;;;;;5076298;28;20464;-78
2023/10/08 12:50:52;;;;;;;8.55;3.30;;;18.30;92.50;;;;;;5042131;28;20049;-77
2023/10/08 12:53:26;;;;;;;8.55;3.67;;;18.30;92.50;;;;;;5058511;28;20058;-78
2023/10/08 12:55:53;;;;;;;7.78;4.15;;;18.30;92.60;;;;;;5058511;28;20029;-78
2023/10/08 12:58:23;;;;;;;8.88;3.95;;;18.20;92.70;;;;;;5058367;28;20049;-78
2023/10/08 13:00:56;;;;;;;11.52;3.78;;;18.30;92.60;;;;;;5058532;28;20039;-78
2023/10/08 13:03:23;;;;;;;9.45;3.95;;;18.20;92.80;;;;;;5058363;28;20036;-77
2023/10/08 13:05:52;;;;;;;8.57;4.80;;;18.20;92.70;;;;;;5058348;28;20498;-78
2023/10/08 13:08:19;;;;;;;8.40;4.57;;;18.20;92.80;;;;;;5058328;28;20032;-77
2023/10/08 13:10:46;;;;;;;13.80;4.97;;;18.20;92.80;;;;;;5075131;28;20032;-78
2023/10/08 13:13:12;;;;;;;12.38;4.93;;;18.20;92.70;;;;;;5075833;28;20556;-78
2023/10/08 13:15:44;;;;;;;9.90;5.28;;;18.30;92.80;;;;;;5041564;28;20024;-78
2023/10/08 13:18:10;;;;;;;11.50;5.28;;;18.30;93.00;;;;;;5058122;28;20084;-78
2023/10/08 13:20:36;;;;;;;10.95;6.50;;;18.30;93.30;;;;;;5074824;28;20029;-78
2023/10/08 13:23:01;;;;;;;11.45;6.68;;;18.40;92.90;;;;;;5057892;28;20392;-78
2023/10/08 13:25:27;;;;;;;15.73;7.20;;;18.30;92.90;;;;;;5057921;28;20017;-78
2023/10/08 13:27:54;;;;;;;14.23;7.20;;;18.20;92.70;;;;;;5057920;28;20025;-77
2023/10/08 13:30:20;;;;;;;14.98;6.65;;;18.20;92.90;;;;;;5057844;28;20017;-78
2023/10/08 13:32:46;;;;;;;15.23;7.13;;;18.30;93.10;;;;;;5058022;28;20032;-78
2023/10/08 13:35:12;;;;;;;17.27;8.13;;;18.30;93.00;;;;;;5057681;28;20029;-78
2023/10/08 13:37:37;;;;;;;18.50;8.18;;;18.40;93.00;;;;;;5075351;28;20037;-78
2023/10/08 13:40:03;;;;;;;16.17;7.68;;;18.40;92.90;;;;;;5057469;28;20045;-78
2023/10/08 13:42:29;;;;;;;18.15;9.52;;;18.30;93.00;;;;;;5057577;28;20044;-78
2023/10/08 13:44:59;;;;;;;21.80;10.65;;;18.40;93.00;;;;;;5041086;28;20029;-77
2023/10/08 13:47:26;;;;;;;18.75;10.55;;;18.40;92.90;;;;;;5057562;28;20051;-78
2023/10/08 13:49:55;;;;;;;22.15;10.60;;;18.40;93.10;;;;;;5041051;28;20021;-78
2023/10/08 13:52:20;;;;;;;19.65;10.52;;;18.50;93.20;;;;;;5040939;28;20032;-78
2023/10/08 13:54:51;;;;;;;25.23;12.20;;;18.60;93.20;;;;;;5075035;28;20486;-78
2023/10/08 13:57:19;;;;;;;21.48;11.25;;;18.60;92.90;;;;;;5041057;28;20095;-78
2023/10/08 13:59:48;;;;;;;22.88;11.18;;;18.60;93.10;;;;;;5074945;28;20025;-78